Cameron, Montana
Current Conditions -  °F | °C
As of 12:53 AM on Friday 31 Oct 2014 (Local Time) from KDLN Reporting Station
Clear Clear  
Wind Chill: 40°   Ceiling: Unl
Heat Index: 40°   Visibility: 10mi
Dew Point: 30°   Wind: 3mph
Humidity: 68%   Direction: 200°SSW
Pressure: 30.08"   Gusts: NA
Location:  45.2°N, 111.68°W
Report Text: KDLN 310653Z AUTO 20003KT 10SM CLR 04/M01 A3008 RMK AO2 SLP175 T00441011 401441006
Loading
Personal Weather Stations






























Interactive Weather Map
Tropical Storm Tracking
New forecast layout! Learn more

10-Day Weather Forecast

Advertisements
Track Severe Weather on mobile